Terminal Aerodrome Forecast
Issued by NWS

Home | Current Version | Previous Version | Text Only | Print | Product List | Glossary Off
Versions: 1 2 3 4 5 6 7 8 9 10 11 12 13

000
FTUS43 KGRB 171700
TAFAUW
TAF
KAUW 171736Z 1718/1818 VRB04KT P6SM SCT050
     FM180000 VRB04KT P6SM SKC
     FM180800 36008KT P6SM SKC
     FM181400 09011G16KT P6SM SCT200=

USA.gov is the U.S. government's official web portal to all federal, state and local government web resources and services.